sensor_id;sensor_type;location;lat;lon;timestamp;P1;durP1;ratioP1;P2;durP2;ratioP2
61200;SDS011;47065;52.898;6.992;2024-02-15T00:00:16;45.47;;;22.38;;
61200;SDS011;47065;52.898;6.992;2024-02-15T00:02:43;41.65;;;21.60;;
61200;SDS011;47065;52.898;6.992;2024-02-15T00:05:12;42.55;;;20.98;;
61200;SDS011;47065;52.898;6.992;2024-02-15T00:07:39;39.65;;;19.83;;
61200;SDS011;47065;52.898;6.992;2024-02-15T00:10:05;41.67;;;22.02;;
61200;SDS011;47065;52.898;6.992;2024-02-15T00:12:33;40.40;;;21.00;;
61200;SDS011;47065;52.898;6.992;2024-02-15T00:14:59;45.65;;;22.80;;
61200;SDS011;47065;52.898;6.992;2024-02-15T00:17:28;42.13;;;21.30;;
61200;SDS011;47065;52.898;6.992;2024-02-15T00:19:56;39.28;;;21.73;;
61200;SDS011;47065;52.898;6.992;2024-02-15T00:22:22;40.53;;;20.38;;
61200;SDS011;47065;52.898;6.992;2024-02-15T00:24:48;42.38;;;21.95;;
61200;SDS011;47065;52.898;6.992;2024-02-15T00:27:14;49.45;;;21.65;;
61200;SDS011;47065;52.898;6.992;2024-02-15T00:29:43;36.63;;;21.30;;
61200;SDS011;47065;52.898;6.992;2024-02-15T00:32:09;46.22;;;23.17;;
61200;SDS011;47065;52.898;6.992;2024-02-15T00:34:38;49.53;;;21.20;;
61200;SDS011;47065;52.898;6.992;2024-02-15T00:37:06;49.63;;;21.70;;
61200;SDS011;47065;52.898;6.992;2024-02-15T00:39:32;50.13;;;21.40;;
61200;SDS011;47065;52.898;6.992;2024-02-15T00:41:58;50.88;;;23.83;;
61200;SDS011;47065;52.898;6.992;2024-02-15T00:44:28;35.92;;;17.67;;
61200;SDS011;47065;52.898;6.992;2024-02-15T00:46:53;41.40;;;19.25;;
61200;SDS011;47065;52.898;6.992;2024-02-15T00:49:22;38.47;;;18.27;;
61200;SDS011;47065;52.898;6.992;2024-02-15T00:51:53;40.88;;;20.23;;
61200;SDS011;47065;52.898;6.992;2024-02-15T00:54:18;42.28;;;18.88;;
61200;SDS011;47065;52.898;6.992;2024-02-15T00:56:44;31.27;;;16.83;;
61200;SDS011;47065;52.898;6.992;2024-02-15T00:59:10;32.22;;;17.20;;
61200;SDS011;47065;52.898;6.992;2024-02-15T01:01:35;38.60;;;17.05;;
61200;SDS011;47065;52.898;6.992;2024-02-15T01:04:06;38.47;;;15.52;;
61200;SDS011;47065;52.898;6.992;2024-02-15T01:06:32;35.88;;;17.83;;
61200;SDS011;47065;52.898;6.992;2024-02-15T01:08:59;27.30;;;14.07;;
61200;SDS011;47065;52.898;6.992;2024-02-15T01:11:31;31.75;;;15.18;;
61200;SDS011;47065;52.898;6.992;2024-02-15T01:13:57;24.38;;;13.50;;
61200;SDS011;47065;52.898;6.992;2024-02-15T01:16:26;30.63;;;14.68;;
61200;SDS011;47065;52.898;6.992;2024-02-15T01:18:51;26.45;;;13.57;;
61200;SDS011;47065;52.898;6.992;2024-02-15T01:21:17;29.52;;;13.98;;
61200;SDS011;47065;52.898;6.992;2024-02-15T01:23:44;25.45;;;14.43;;
61200;SDS011;47065;52.898;6.992;2024-02-15T01:26:14;28.52;;;14.93;;
61200;SDS011;47065;52.898;6.992;2024-02-15T01:28:40;28.17;;;14.45;;
61200;SDS011;47065;52.898;6.992;2024-02-15T01:31:09;32.40;;;15.43;;
61200;SDS011;47065;52.898;6.992;2024-02-15T01:33:41;28.30;;;13.85;;
61200;SDS011;47065;52.898;6.992;2024-02-15T01:36:08;35.03;;;14.35;;
61200;SDS011;47065;52.898;6.992;2024-02-15T01:38:38;37.10;;;15.32;;
61200;SDS011;47065;52.898;6.992;2024-02-15T01:41:04;37.72;;;15.57;;
61200;SDS011;47065;52.898;6.992;2024-02-15T01:43:29;39.67;;;17.08;;
61200;SDS011;47065;52.898;6.992;2024-02-15T01:45:56;32.00;;;16.35;;
61200;SDS011;47065;52.898;6.992;2024-02-15T01:48:31;43.42;;;18.08;;
61200;SDS011;47065;52.898;6.992;2024-02-15T01:50:57;37.00;;;17.95;;
61200;SDS011;47065;52.898;6.992;2024-02-15T01:53:23;45.05;;;19.58;;
61200;SDS011;47065;52.898;6.992;2024-02-15T01:55:51;52.13;;;18.92;;
61200;SDS011;47065;52.898;6.992;2024-02-15T01:58:18;46.72;;;19.52;;
61200;SDS011;47065;52.898;6.992;2024-02-15T02:00:57;58.13;;;22.60;;
61200;SDS011;47065;52.898;6.992;2024-02-15T02:03:23;45.67;;;20.45;;
61200;SDS011;47065;52.898;6.992;2024-02-15T02:05:52;46.92;;;21.17;;
61200;SDS011;47065;52.898;6.992;2024-02-15T02:08:20;54.92;;;21.73;;
61200;SDS011;47065;52.898;6.992;2024-02-15T02:10:47;51.58;;;22.00;;
61200;SDS011;47065;52.898;6.992;2024-02-15T02:13:16;54.95;;;23.30;;
61200;SDS011;47065;52.898;6.992;2024-02-15T02:15:45;44.58;;;19.13;;
61200;SDS011;47065;52.898;6.992;2024-02-15T02:18:10;48.47;;;19.48;;
61200;SDS011;47065;52.898;6.992;2024-02-15T02:20:36;50.13;;;20.60;;
61200;SDS011;47065;52.898;6.992;2024-02-15T02:23:09;48.85;;;18.33;;
61200;SDS011;47065;52.898;6.992;2024-02-15T02:25:39;45.25;;;18.45;;
61200;SDS011;47065;52.898;6.992;2024-02-15T02:28:07;51.63;;;18.42;;
61200;SDS011;47065;52.898;6.992;2024-02-15T02:30:34;39.05;;;15.40;;
61200;SDS011;47065;52.898;6.992;2024-02-15T02:33:00;46.92;;;17.70;;
61200;SDS011;47065;52.898;6.992;2024-02-15T02:35:32;46.15;;;18.40;;
61200;SDS011;47065;52.898;6.992;2024-02-15T02:37:58;52.53;;;18.20;;
61200;SDS011;47065;52.898;6.992;2024-02-15T02:40:26;46.15;;;19.10;;
61200;SDS011;47065;52.898;6.992;2024-02-15T02:42:55;44.58;;;17.30;;
61200;SDS011;47065;52.898;6.992;2024-02-15T02:45:26;47.67;;;17.25;;
61200;SDS011;47065;52.898;6.992;2024-02-15T02:47:55;41.50;;;15.43;;
61200;SDS011;47065;52.898;6.992;2024-02-15T02:50:21;43.33;;;15.63;;
61200;SDS011;47065;52.898;6.992;2024-02-15T02:52:56;39.95;;;17.73;;
61200;SDS011;47065;52.898;6.992;2024-02-15T02:55:24;44.58;;;16.83;;
61200;SDS011;47065;52.898;6.992;2024-02-15T02:57:52;35.95;;;16.90;;
61200;SDS011;47065;52.898;6.992;2024-02-15T03:00:22;52.72;;;19.38;;
61200;SDS011;47065;52.898;6.992;2024-02-15T03:02:48;41.05;;;17.98;;
61200;SDS011;47065;52.898;6.992;2024-02-15T03:05:16;48.35;;;19.45;;
61200;SDS011;47065;52.898;6.992;2024-02-15T03:07:48;38.10;;;18.92;;
61200;SDS011;47065;52.898;6.992;2024-02-15T03:10:15;44.83;;;18.17;;
61200;SDS011;47065;52.898;6.992;2024-02-15T03:12:41;38.53;;;18.27;;
61200;SDS011;47065;52.898;6.992;2024-02-15T03:15:16;48.38;;;19.60;;
61200;SDS011;47065;52.898;6.992;2024-02-15T03:17:45;39.63;;;17.85;;
61200;SDS011;47065;52.898;6.992;2024-02-15T03:20:15;53.33;;;19.10;;
61200;SDS011;47065;52.898;6.992;2024-02-15T03:22:55;39.47;;;16.83;;
61200;SDS011;47065;52.898;6.992;2024-02-15T03:25:25;47.23;;;18.67;;
61200;SDS011;47065;52.898;6.992;2024-02-15T03:27:54;46.08;;;20.23;;
61200;SDS011;47065;52.898;6.992;2024-02-15T03:30:29;51.42;;;20.65;;
61200;SDS011;47065;52.898;6.992;2024-02-15T03:32:56;42.85;;;19.63;;
61200;SDS011;47065;52.898;6.992;2024-02-15T03:35:28;39.03;;;20.73;;
61200;SDS011;47065;52.898;6.992;2024-02-15T03:37:59;44.42;;;20.70;;
61200;SDS011;47065;52.898;6.992;2024-02-15T03:40:25;46.60;;;21.70;;
61200;SDS011;47065;52.898;6.992;2024-02-15T03:42:55;49.00;;;21.48;;
61200;SDS011;47065;52.898;6.992;2024-02-15T03:45:21;41.22;;;21.40;;
61200;SDS011;47065;52.898;6.992;2024-02-15T03:47:53;49.05;;;22.55;;
61200;SDS011;47065;52.898;6.992;2024-02-15T03:50:22;52.97;;;24.02;;
61200;SDS011;47065;52.898;6.992;2024-02-15T03:52:51;42.92;;;21.70;;
61200;SDS011;47065;52.898;6.992;2024-02-15T03:55:27;48.58;;;23.98;;
61200;SDS011;47065;52.898;6.992;2024-02-15T03:57:56;45.42;;;24.50;;
61200;SDS011;47065;52.898;6.992;2024-02-15T04:00:23;44.80;;;25.08;;
61200;SDS011;47065;52.898;6.992;2024-02-15T04:02:54;52.30;;;24.23;;
61200;SDS011;47065;52.898;6.992;2024-02-15T04:05:21;48.42;;;25.42;;
61200;SDS011;47065;52.898;6.992;2024-02-15T04:07:48;45.25;;;23.58;;
61200;SDS011;47065;52.898;6.992;2024-02-15T04:10:14;43.78;;;23.50;;
61200;SDS011;47065;52.898;6.992;2024-02-15T04:12:42;42.47;;;23.65;;
61200;SDS011;47065;52.898;6.992;2024-02-15T04:15:08;49.55;;;23.50;;
61200;SDS011;47065;52.898;6.992;2024-02-15T04:17:40;47.33;;;22.70;;
61200;SDS011;47065;52.898;6.992;2024-02-15T04:20:07;57.92;;;24.13;;
61200;SDS011;47065;52.898;6.992;2024-02-15T04:22:37;48.03;;;22.38;;
61200;SDS011;47065;52.898;6.992;2024-02-15T04:25:07;50.97;;;23.30;;
61200;SDS011;47065;52.898;6.992;2024-02-15T04:27:41;46.17;;;22.90;;
61200;SDS011;47065;52.898;6.992;2024-02-15T04:30:08;48.45;;;22.13;;
61200;SDS011;47065;52.898;6.992;2024-02-15T04:32:34;43.45;;;23.05;;
61200;SDS011;47065;52.898;6.992;2024-02-15T04:35:04;51.40;;;24.30;;
61200;SDS011;47065;52.898;6.992;2024-02-15T04:37:30;47.88;;;22.92;;
61200;SDS011;47065;52.898;6.992;2024-02-15T04:39:57;44.70;;;23.77;;
61200;SDS011;47065;52.898;6.992;2024-02-15T04:42:23;50.33;;;25.20;;
61200;SDS011;47065;52.898;6.992;2024-02-15T04:44:52;48.22;;;24.23;;
61200;SDS011;47065;52.898;6.992;2024-02-15T04:47:22;50.88;;;24.95;;
61200;SDS011;47065;52.898;6.992;2024-02-15T04:49:48;47.28;;;24.20;;
61200;SDS011;47065;52.898;6.992;2024-02-15T04:52:16;50.85;;;24.42;;
61200;SDS011;47065;52.898;6.992;2024-02-15T04:54:48;43.25;;;22.75;;
61200;SDS011;47065;52.898;6.992;2024-02-15T04:57:14;52.25;;;25.30;;
61200;SDS011;47065;52.898;6.992;2024-02-15T04:59:39;40.65;;;22.65;;
61200;SDS011;47065;52.898;6.992;2024-02-15T05:02:05;43.58;;;24.13;;
61200;SDS011;47065;52.898;6.992;2024-02-15T05:04:32;61.15;;;24.98;;
61200;SDS011;47065;52.898;6.992;2024-02-15T05:07:01;49.42;;;24.73;;
61200;SDS011;47065;52.898;6.992;2024-02-15T05:09:28;41.88;;;24.05;;
61200;SDS011;47065;52.898;6.992;2024-02-15T05:11:59;50.90;;;25.42;;
61200;SDS011;47065;52.898;6.992;2024-02-15T05:14:27;50.13;;;26.05;;
61200;SDS011;47065;52.898;6.992;2024-02-15T05:16:55;52.50;;;26.55;;
61200;SDS011;47065;52.898;6.992;2024-02-15T05:19:21;47.95;;;27.60;;
61200;SDS011;47065;52.898;6.992;2024-02-15T05:21:48;54.95;;;30.33;;
61200;SDS011;47065;52.898;6.992;2024-02-15T05:24:15;48.28;;;25.40;;
61200;SDS011;47065;52.898;6.992;2024-02-15T05:26:46;52.65;;;27.15;;
61200;SDS011;47065;52.898;6.992;2024-02-15T05:29:12;43.25;;;25.42;;
61200;SDS011;47065;52.898;6.992;2024-02-15T05:31:38;48.70;;;25.20;;
61200;SDS011;47065;52.898;6.992;2024-02-15T05:34:05;49.47;;;26.92;;
61200;SDS011;47065;52.898;6.992;2024-02-15T05:36:39;45.45;;;25.00;;
61200;SDS011;47065;52.898;6.992;2024-02-15T05:39:05;45.58;;;26.77;;
61200;SDS011;47065;52.898;6.992;2024-02-15T05:41:36;50.25;;;27.23;;
61200;SDS011;47065;52.898;6.992;2024-02-15T05:44:09;45.90;;;27.83;;
61200;SDS011;47065;52.898;6.992;2024-02-15T05:46:35;49.10;;;26.98;;
61200;SDS011;47065;52.898;6.992;2024-02-15T05:49:05;50.47;;;26.52;;
61200;SDS011;47065;52.898;6.992;2024-02-15T05:51:31;45.63;;;25.75;;
61200;SDS011;47065;52.898;6.992;2024-02-15T05:53:58;48.67;;;26.27;;
61200;SDS011;47065;52.898;6.992;2024-02-15T05:56:24;49.50;;;26.13;;
61200;SDS011;47065;52.898;6.992;2024-02-15T05:58:51;52.00;;;27.00;;
61200;SDS011;47065;52.898;6.992;2024-02-15T06:01:17;44.08;;;27.27;;
61200;SDS011;47065;52.898;6.992;2024-02-15T06:03:43;49.80;;;26.73;;
61200;SDS011;47065;52.898;6.992;2024-02-15T06:06:10;51.50;;;27.13;;
61200;SDS011;47065;52.898;6.992;2024-02-15T06:08:39;51.97;;;25.55;;
61200;SDS011;47065;52.898;6.992;2024-02-15T06:11:05;42.35;;;24.58;;
61200;SDS011;47065;52.898;6.992;2024-02-15T06:13:30;43.10;;;24.83;;
61200;SDS011;47065;52.898;6.992;2024-02-15T06:15:56;38.95;;;23.25;;
61200;SDS011;47065;52.898;6.992;2024-02-15T06:18:29;42.35;;;25.38;;
61200;SDS011;47065;52.898;6.992;2024-02-15T06:20:59;45.33;;;24.92;;
61200;SDS011;47065;52.898;6.992;2024-02-15T06:23:26;47.08;;;25.33;;
61200;SDS011;47065;52.898;6.992;2024-02-15T06:25:53;44.22;;;25.85;;
61200;SDS011;47065;52.898;6.992;2024-02-15T06:28:22;42.05;;;23.52;;
61200;SDS011;47065;52.898;6.992;2024-02-15T06:31:09;44.03;;;24.17;;
61200;SDS011;47065;52.898;6.992;2024-02-15T06:33:54;45.53;;;24.85;;
61200;SDS011;47065;52.898;6.992;2024-02-15T06:39:30;41.58;;;23.70;;
61200;SDS011;47065;52.898;6.992;2024-02-15T06:42:10;43.72;;;23.88;;
61200;SDS011;47065;52.898;6.992;2024-02-15T06:44:47;51.20;;;23.80;;
61200;SDS011;47065;52.898;6.992;2024-02-15T06:47:14;41.97;;;22.02;;
61200;SDS011;47065;52.898;6.992;2024-02-15T06:49:45;38.92;;;22.10;;
61200;SDS011;47065;52.898;6.992;2024-02-15T06:52:11;40.35;;;21.88;;
61200;SDS011;47065;52.898;6.992;2024-02-15T06:54:38;36.90;;;20.77;;
61200;SDS011;47065;52.898;6.992;2024-02-15T06:57:05;38.05;;;20.58;;
61200;SDS011;47065;52.898;6.992;2024-02-15T06:59:31;37.42;;;21.25;;
61200;SDS011;47065;52.898;6.992;2024-02-15T07:02:01;41.42;;;22.15;;
61200;SDS011;47065;52.898;6.992;2024-02-15T07:04:30;42.28;;;21.05;;
61200;SDS011;47065;52.898;6.992;2024-02-15T07:06:57;37.17;;;21.15;;
61200;SDS011;47065;52.898;6.992;2024-02-15T07:09:23;43.33;;;21.75;;
61200;SDS011;47065;52.898;6.992;2024-02-15T07:11:52;38.28;;;20.70;;
61200;SDS011;47065;52.898;6.992;2024-02-15T07:14:18;35.53;;;19.85;;
61200;SDS011;47065;52.898;6.992;2024-02-15T07:16:47;34.95;;;20.48;;
61200;SDS011;47065;52.898;6.992;2024-02-15T07:19:18;30.55;;;19.45;;
61200;SDS011;47065;52.898;6.992;2024-02-15T07:21:47;40.53;;;19.38;;
61200;SDS011;47065;52.898;6.992;2024-02-15T07:24:12;39.15;;;19.98;;
61200;SDS011;47065;52.898;6.992;2024-02-15T07:26:39;31.75;;;18.80;;
61200;SDS011;47065;52.898;6.992;2024-02-15T07:29:05;35.40;;;18.90;;
61200;SDS011;47065;52.898;6.992;2024-02-15T07:31:31;31.02;;;19.23;;
61200;SDS011;47065;52.898;6.992;2024-02-15T07:33:58;35.17;;;19.30;;
61200;SDS011;47065;52.898;6.992;2024-02-15T07:36:24;45.92;;;19.90;;
61200;SDS011;47065;52.898;6.992;2024-02-15T07:38:51;33.67;;;18.25;;
61200;SDS011;47065;52.898;6.992;2024-02-15T07:41:18;40.97;;;18.88;;
61200;SDS011;47065;52.898;6.992;2024-02-15T07:43:47;32.30;;;18.13;;
61200;SDS011;47065;52.898;6.992;2024-02-15T07:46:13;43.20;;;21.48;;
61200;SDS011;47065;52.898;6.992;2024-02-15T07:48:44;35.13;;;17.40;;
61200;SDS011;47065;52.898;6.992;2024-02-15T07:51:13;35.97;;;18.70;;
61200;SDS011;47065;52.898;6.992;2024-02-15T07:53:40;38.10;;;18.92;;
61200;SDS011;47065;52.898;6.992;2024-02-15T07:56:08;37.03;;;20.55;;
61200;SDS011;47065;52.898;6.992;2024-02-15T07:58:42;38.08;;;19.63;;
61200;SDS011;47065;52.898;6.992;2024-02-15T08:01:13;38.15;;;19.73;;
61200;SDS011;47065;52.898;6.992;2024-02-15T08:03:39;45.72;;;20.15;;
61200;SDS011;47065;52.898;6.992;2024-02-15T08:06:19;31.90;;;18.92;;
61200;SDS011;47065;52.898;6.992;2024-02-15T08:08:46;38.97;;;20.05;;
61200;SDS011;47065;52.898;6.992;2024-02-15T08:11:17;40.70;;;18.42;;
61200;SDS011;47065;52.898;6.992;2024-02-15T08:13:47;28.85;;;17.25;;
61200;SDS011;47065;52.898;6.992;2024-02-15T08:16:20;31.95;;;18.48;;
61200;SDS011;47065;52.898;6.992;2024-02-15T08:18:48;35.47;;;20.13;;
61200;SDS011;47065;52.898;6.992;2024-02-15T08:23:55;33.08;;;18.48;;
61200;SDS011;47065;52.898;6.992;2024-02-15T08:26:24;28.77;;;17.38;;
61200;SDS011;47065;52.898;6.992;2024-02-15T08:28:50;26.73;;;16.40;;
61200;SDS011;47065;52.898;6.992;2024-02-15T08:31:21;35.10;;;17.08;;
61200;SDS011;47065;52.898;6.992;2024-02-15T08:33:47;30.00;;;15.90;;
61200;SDS011;47065;52.898;6.992;2024-02-15T08:36:13;23.92;;;15.95;;
61200;SDS011;47065;52.898;6.992;2024-02-15T08:38:39;35.35;;;16.77;;
61200;SDS011;47065;52.898;6.992;2024-02-15T08:41:06;24.88;;;15.05;;
61200;SDS011;47065;52.898;6.992;2024-02-15T08:43:33;25.23;;;15.15;;
61200;SDS011;47065;52.898;6.992;2024-02-15T08:45:59;22.20;;;14.30;;
61200;SDS011;47065;52.898;6.992;2024-02-15T08:48:26;22.23;;;14.18;;
61200;SDS011;47065;52.898;6.992;2024-02-15T08:50:52;27.77;;;15.02;;
61200;SDS011;47065;52.898;6.992;2024-02-15T08:53:20;25.13;;;16.42;;
61200;SDS011;47065;52.898;6.992;2024-02-15T08:55:49;21.75;;;14.90;;
61200;SDS011;47065;52.898;6.992;2024-02-15T08:58:18;23.88;;;14.63;;
61200;SDS011;47065;52.898;6.992;2024-02-15T09:00:44;30.38;;;16.33;;
61200;SDS011;47065;52.898;6.992;2024-02-15T09:03:10;24.45;;;14.90;;
61200;SDS011;47065;52.898;6.992;2024-02-15T09:05:39;18.98;;;14.60;;
61200;SDS011;47065;52.898;6.992;2024-02-15T09:08:06;20.90;;;13.73;;
61200;SDS011;47065;52.898;6.992;2024-02-15T09:10:35;21.58;;;13.10;;
61200;SDS011;47065;52.898;6.992;2024-02-15T09:13:08;21.63;;;14.90;;
61200;SDS011;47065;52.898;6.992;2024-02-15T09:15:42;25.20;;;14.55;;
61200;SDS011;47065;52.898;6.992;2024-02-15T09:18:08;31.02;;;15.70;;
61200;SDS011;47065;52.898;6.992;2024-02-15T09:20:40;21.88;;;14.23;;
61200;SDS011;47065;52.898;6.992;2024-02-15T09:23:10;21.05;;;14.88;;
61200;SDS011;47065;52.898;6.992;2024-02-15T09:25:39;28.33;;;14.48;;
61200;SDS011;47065;52.898;6.992;2024-02-15T09:28:10;25.63;;;14.13;;
61200;SDS011;47065;52.898;6.992;2024-02-15T09:30:35;25.77;;;13.77;;
61200;SDS011;47065;52.898;6.992;2024-02-15T09:33:01;28.33;;;13.73;;
61200;SDS011;47065;52.898;6.992;2024-02-15T09:35:30;22.30;;;13.75;;
61200;SDS011;47065;52.898;6.992;2024-02-15T09:37:59;23.98;;;13.23;;
61200;SDS011;47065;52.898;6.992;2024-02-15T09:40:28;17.60;;;12.00;;
61200;SDS011;47065;52.898;6.992;2024-02-15T09:42:54;23.83;;;12.75;;
61200;SDS011;47065;52.898;6.992;2024-02-15T09:45:20;21.65;;;12.45;;
61200;SDS011;47065;52.898;6.992;2024-02-15T09:47:46;15.82;;;11.60;;
61200;SDS011;47065;52.898;6.992;2024-02-15T09:50:18;20.33;;;11.68;;
61200;SDS011;47065;52.898;6.992;2024-02-15T09:52:44;22.35;;;12.43;;
61200;SDS011;47065;52.898;6.992;2024-02-15T09:55:14;22.83;;;11.65;;
61200;SDS011;47065;52.898;6.992;2024-02-15T09:57:41;14.52;;;11.05;;
61200;SDS011;47065;52.898;6.992;2024-02-15T10:00:09;17.83;;;12.07;;
61200;SDS011;47065;52.898;6.992;2024-02-15T10:02:42;18.73;;;12.10;;
61200;SDS011;47065;52.898;6.992;2024-02-15T10:05:09;15.93;;;11.10;;
61200;SDS011;47065;52.898;6.992;2024-02-15T10:07:42;20.67;;;11.88;;
61200;SDS011;47065;52.898;6.992;2024-02-15T10:10:15;20.00;;;11.90;;
61200;SDS011;47065;52.898;6.992;2024-02-15T10:12:48;17.37;;;12.07;;
61200;SDS011;47065;52.898;6.992;2024-02-15T10:17:55;18.90;;;11.85;;
61200;SDS011;47065;52.898;6.992;2024-02-15T10:20:22;19.00;;;12.20;;
61200;SDS011;47065;52.898;6.992;2024-02-15T10:23:14;14.55;;;11.27;;
61200;SDS011;47065;52.898;6.992;2024-02-15T10:25:45;21.35;;;12.68;;
61200;SDS011;47065;52.898;6.992;2024-02-15T10:28:12;14.88;;;10.90;;
61200;SDS011;47065;52.898;6.992;2024-02-15T10:30:44;18.63;;;11.15;;
61200;SDS011;47065;52.898;6.992;2024-02-15T10:33:27;15.45;;;10.13;;
61200;SDS011;47065;52.898;6.992;2024-02-15T10:36:07;11.95;;;9.35;;
61200;SDS011;47065;52.898;6.992;2024-02-15T10:38:41;11.50;;;9.35;;
61200;SDS011;47065;52.898;6.992;2024-02-15T10:41:09;13.40;;;9.88;;
61200;SDS011;47065;52.898;6.992;2024-02-15T10:43:36;13.65;;;8.38;;
61200;SDS011;47065;52.898;6.992;2024-02-15T10:46:04;13.73;;;9.43;;
61200;SDS011;47065;52.898;6.992;2024-02-15T10:48:35;10.32;;;7.78;;
61200;SDS011;47065;52.898;6.992;2024-02-15T10:51:02;10.38;;;8.07;;
61200;SDS011;47065;52.898;6.992;2024-02-15T10:53:32;11.80;;;7.43;;
61200;SDS011;47065;52.898;6.992;2024-02-15T10:58:33;8.90;;;7.68;;
61200;SDS011;47065;52.898;6.992;2024-02-15T11:01:06;10.93;;;6.75;;
61200;SDS011;47065;52.898;6.992;2024-02-15T11:03:38;10.35;;;7.50;;
61200;SDS011;47065;52.898;6.992;2024-02-15T11:06:12;9.38;;;7.45;;
61200;SDS011;47065;52.898;6.992;2024-02-15T11:08:40;6.88;;;6.18;;
61200;SDS011;47065;52.898;6.992;2024-02-15T11:11:09;8.30;;;6.32;;
61200;SDS011;47065;52.898;6.992;2024-02-15T11:13:39;8.82;;;6.70;;
61200;SDS011;47065;52.898;6.992;2024-02-15T11:16:05;12.52;;;7.15;;
61200;SDS011;47065;52.898;6.992;2024-02-15T11:18:46;8.25;;;6.50;;
61200;SDS011;47065;52.898;6.992;2024-02-15T11:24:30;7.97;;;6.38;;
61200;SDS011;47065;52.898;6.992;2024-02-15T11:27:06;7.53;;;6.65;;
61200;SDS011;47065;52.898;6.992;2024-02-15T11:35:09;8.18;;;5.63;;
61200;SDS011;47065;52.898;6.992;2024-02-15T11:43:09;7.80;;;6.45;;
61200;SDS011;47065;52.898;6.992;2024-02-15T11:45:58;7.97;;;5.05;;
61200;SDS011;47065;52.898;6.992;2024-02-15T11:48:25;6.10;;;5.50;;
61200;SDS011;47065;52.898;6.992;2024-02-15T11:50:51;5.93;;;5.32;;
61200;SDS011;47065;52.898;6.992;2024-02-15T11:53:19;5.65;;;4.75;;
61200;SDS011;47065;52.898;6.992;2024-02-15T11:55:45;6.07;;;5.47;;
61200;SDS011;47065;52.898;6.992;2024-02-15T11:58:12;6.15;;;5.13;;
61200;SDS011;47065;52.898;6.992;2024-02-15T12:00:58;6.07;;;5.45;;
61200;SDS011;47065;52.898;6.992;2024-02-15T12:03:45;5.80;;;4.85;;
61200;SDS011;47065;52.898;6.992;2024-02-15T12:06:36;7.43;;;5.38;;
61200;SDS011;47065;52.898;6.992;2024-02-15T12:09:23;6.30;;;5.32;;
61200;SDS011;47065;52.898;6.992;2024-02-15T12:12:10;5.35;;;4.70;;
61200;SDS011;47065;52.898;6.992;2024-02-15T12:14:58;5.65;;;5.05;;
61200;SDS011;47065;52.898;6.992;2024-02-15T12:17:45;6.47;;;5.18;;
61200;SDS011;47065;52.898;6.992;2024-02-15T12:20:29;6.47;;;5.75;;
61200;SDS011;47065;52.898;6.992;2024-02-15T12:22:57;8.18;;;6.70;;
61200;SDS011;47065;52.898;6.992;2024-02-15T12:25:28;8.38;;;5.93;;
61200;SDS011;47065;52.898;6.992;2024-02-15T12:27:58;6.78;;;5.63;;
61200;SDS011;47065;52.898;6.992;2024-02-15T12:30:25;5.45;;;4.82;;
61200;SDS011;47065;52.898;6.992;2024-02-15T12:33:08;6.65;;;5.68;;
61200;SDS011;47065;52.898;6.992;2024-02-15T12:35:35;6.40;;;5.15;;
61200;SDS011;47065;52.898;6.992;2024-02-15T12:38:02;7.72;;;5.80;;
61200;SDS011;47065;52.898;6.992;2024-02-15T12:40:36;7.95;;;6.53;;
61200;SDS011;47065;52.898;6.992;2024-02-15T12:43:06;9.80;;;5.78;;
61200;SDS011;47065;52.898;6.992;2024-02-15T12:45:35;6.53;;;5.75;;
61200;SDS011;47065;52.898;6.992;2024-02-15T12:48:05;6.57;;;5.82;;
61200;SDS011;47065;52.898;6.992;2024-02-15T12:50:35;7.13;;;5.97;;
61200;SDS011;47065;52.898;6.992;2024-02-15T12:53:01;9.52;;;5.70;;
61200;SDS011;47065;52.898;6.992;2024-02-15T12:55:34;7.60;;;5.95;;
61200;SDS011;47065;52.898;6.992;2024-02-15T12:58:01;7.78;;;5.93;;
61200;SDS011;47065;52.898;6.992;2024-02-15T13:00:30;10.70;;;6.53;;
61200;SDS011;47065;52.898;6.992;2024-02-15T13:02:58;8.23;;;5.97;;
61200;SDS011;47065;52.898;6.992;2024-02-15T13:05:25;9.63;;;5.68;;
61200;SDS011;47065;52.898;6.992;2024-02-15T13:07:52;9.30;;;6.53;;
61200;SDS011;47065;52.898;6.992;2024-02-15T13:10:23;8.48;;;6.60;;
61200;SDS011;47065;52.898;6.992;2024-02-15T13:12:51;10.95;;;6.43;;
61200;SDS011;47065;52.898;6.992;2024-02-15T13:15:21;11.88;;;7.20;;
61200;SDS011;47065;52.898;6.992;2024-02-15T13:17:52;7.97;;;7.13;;
61200;SDS011;47065;52.898;6.992;2024-02-15T13:20:19;9.32;;;6.68;;
61200;SDS011;47065;52.898;6.992;2024-02-15T13:22:52;14.98;;;7.20;;
61200;SDS011;47065;52.898;6.992;2024-02-15T13:25:21;14.32;;;8.00;;
61200;SDS011;47065;52.898;6.992;2024-02-15T13:27:47;12.02;;;6.75;;
61200;SDS011;47065;52.898;6.992;2024-02-15T13:30:13;10.88;;;8.00;;
61200;SDS011;47065;52.898;6.992;2024-02-15T13:32:39;14.05;;;7.22;;
61200;SDS011;47065;52.898;6.992;2024-02-15T13:35:09;13.43;;;7.53;;
61200;SDS011;47065;52.898;6.992;2024-02-15T13:37:55;14.23;;;8.20;;
61200;SDS011;47065;52.898;6.992;2024-02-15T13:42:54;14.07;;;9.18;;
61200;SDS011;47065;52.898;6.992;2024-02-15T13:45:24;14.75;;;8.82;;
61200;SDS011;47065;52.898;6.992;2024-02-15T13:48:02;13.50;;;9.60;;
61200;SDS011;47065;52.898;6.992;2024-02-15T13:50:29;13.50;;;9.10;;
61200;SDS011;47065;52.898;6.992;2024-02-15T13:52:55;16.27;;;10.18;;
61200;SDS011;47065;52.898;6.992;2024-02-15T13:55:23;14.13;;;10.38;;
61200;SDS011;47065;52.898;6.992;2024-02-15T13:57:52;19.23;;;9.90;;
61200;SDS011;47065;52.898;6.992;2024-02-15T14:00:20;13.25;;;9.73;;
61200;SDS011;47065;52.898;6.992;2024-02-15T14:02:50;22.80;;;10.20;;
61200;SDS011;47065;52.898;6.992;2024-02-15T14:05:16;18.10;;;10.48;;
61200;SDS011;47065;52.898;6.992;2024-02-15T14:07:46;14.70;;;10.15;;
61200;SDS011;47065;52.898;6.992;2024-02-15T14:10:24;15.63;;;11.07;;
61200;SDS011;47065;52.898;6.992;2024-02-15T14:12:52;23.08;;;12.00;;
61200;SDS011;47065;52.898;6.992;2024-02-15T14:15:33;13.35;;;9.77;;
61200;SDS011;47065;52.898;6.992;2024-02-15T14:18:03;22.35;;;10.25;;
61200;SDS011;47065;52.898;6.992;2024-02-15T14:20:35;17.50;;;11.77;;
61200;SDS011;47065;52.898;6.992;2024-02-15T14:23:02;22.17;;;11.90;;
61200;SDS011;47065;52.898;6.992;2024-02-15T14:25:31;18.23;;;11.50;;
61200;SDS011;47065;52.898;6.992;2024-02-15T14:27:57;19.20;;;11.57;;
61200;SDS011;47065;52.898;6.992;2024-02-15T14:30:26;16.25;;;10.65;;
61200;SDS011;47065;52.898;6.992;2024-02-15T14:33:11;16.20;;;10.60;;
61200;SDS011;47065;52.898;6.992;2024-02-15T14:35:40;25.58;;;11.75;;
61200;SDS011;47065;52.898;6.992;2024-02-15T14:38:09;15.55;;;11.02;;
61200;SDS011;47065;52.898;6.992;2024-02-15T14:40:45;15.20;;;10.63;;
61200;SDS011;47065;52.898;6.992;2024-02-15T14:43:18;15.68;;;11.38;;
61200;SDS011;47065;52.898;6.992;2024-02-15T14:45:48;17.70;;;11.20;;
61200;SDS011;47065;52.898;6.992;2024-02-15T14:48:15;17.77;;;11.45;;
61200;SDS011;47065;52.898;6.992;2024-02-15T14:50:43;15.35;;;11.52;;
61200;SDS011;47065;52.898;6.992;2024-02-15T14:53:12;20.23;;;12.43;;
61200;SDS011;47065;52.898;6.992;2024-02-15T14:55:38;18.65;;;10.98;;
61200;SDS011;47065;52.898;6.992;2024-02-15T14:58:05;24.20;;;12.00;;
61200;SDS011;47065;52.898;6.992;2024-02-15T15:00:33;22.50;;;11.75;;
61200;SDS011;47065;52.898;6.992;2024-02-15T15:02:59;21.40;;;12.07;;
61200;SDS011;47065;52.898;6.992;2024-02-15T15:05:31;20.50;;;12.40;;